sensor_id;sensor_type;location;lat;lon;timestamp;pressure;altitude;pressure_sealevel;temperature;humidity
75681;BME280;64294;49.176;16.626;2023-07-09T00:01:43;99733.00;;;18.30;61.99
75681;BME280;64294;49.176;16.626;2023-07-09T00:04:10;99741.53;;;18.30;62.42
75681;BME280;64294;49.176;16.626;2023-07-09T00:06:39;99743.44;;;18.28;61.90
75681;BME280;64294;49.176;16.626;2023-07-09T00:09:05;99740.84;;;18.22;62.04
75681;BME280;64294;49.176;16.626;2023-07-09T00:11:31;99744.38;;;18.30;61.64
75681;BME280;64294;49.176;16.626;2023-07-09T00:13:56;99745.38;;;18.25;62.07
75681;BME280;64294;49.176;16.626;2023-07-09T00:16:24;99738.50;;;18.28;63.08
75681;BME280;64294;49.176;16.626;2023-07-09T00:18:50;99747.63;;;18.27;63.27
75681;BME280;64294;49.176;16.626;2023-07-09T00:21:17;99740.13;;;18.14;63.64
75681;BME280;64294;49.176;16.626;2023-07-09T00:23:43;99738.63;;;18.13;63.83
75681;BME280;64294;49.176;16.626;2023-07-09T00:26:10;99736.44;;;18.04;64.82
75681;BME280;64294;49.176;16.626;2023-07-09T00:28:41;99745.00;;;17.96;64.83
75681;BME280;64294;49.176;16.626;2023-07-09T00:31:12;99738.84;;;17.82;64.91
75681;BME280;64294;49.176;16.626;2023-07-09T00:33:42;99749.28;;;17.80;65.83
75681;BME280;64294;49.176;16.626;2023-07-09T00:36:16;99746.84;;;17.76;65.70
75681;BME280;64294;49.176;16.626;2023-07-09T00:38:43;99745.31;;;17.75;65.75
75681;BME280;64294;49.176;16.626;2023-07-09T00:41:18;99742.47;;;17.75;65.77
75681;BME280;64294;49.176;16.626;2023-07-09T00:43:46;99739.00;;;17.84;65.52
75681;BME280;64294;49.176;16.626;2023-07-09T00:49:16;99745.75;;;17.97;65.00
75681;BME280;64294;49.176;16.626;2023-07-09T00:51:44;99737.06;;;17.95;65.27
75681;BME280;64294;49.176;16.626;2023-07-09T00:54:33;99738.91;;;18.00;64.47
75681;BME280;64294;49.176;16.626;2023-07-09T00:57:17;99739.31;;;17.96;64.90
75681;BME280;64294;49.176;16.626;2023-07-09T00:59:49;99744.75;;;18.02;64.54
75681;BME280;64294;49.176;16.626;2023-07-09T01:02:15;99738.03;;;17.90;65.00
75681;BME280;64294;49.176;16.626;2023-07-09T01:04:43;99727.34;;;17.98;64.63
75681;BME280;64294;49.176;16.626;2023-07-09T01:07:08;99741.16;;;18.01;64.26
75681;BME280;64294;49.176;16.626;2023-07-09T01:09:34;99738.84;;;17.82;64.65
75681;BME280;64294;49.176;16.626;2023-07-09T01:12:08;99742.97;;;17.89;64.04
75681;BME280;64294;49.176;16.626;2023-07-09T01:14:34;99740.34;;;17.83;64.45
75681;BME280;64294;49.176;16.626;2023-07-09T01:17:03;99744.88;;;17.87;64.32
75681;BME280;64294;49.176;16.626;2023-07-09T01:19:38;99748.31;;;17.85;64.44
75681;BME280;64294;49.176;16.626;2023-07-09T01:22:13;99742.25;;;17.81;64.64
75681;BME280;64294;49.176;16.626;2023-07-09T01:25:04;99742.44;;;17.83;64.95
75681;BME280;64294;49.176;16.626;2023-07-09T01:27:35;99737.16;;;17.79;65.31
75681;BME280;64294;49.176;16.626;2023-07-09T01:30:06;99745.91;;;17.74;65.37
75681;BME280;64294;49.176;16.626;2023-07-09T01:32:32;99747.25;;;17.73;65.96
75681;BME280;64294;49.176;16.626;2023-07-09T01:35:01;99745.72;;;17.64;66.03
75681;BME280;64294;49.176;16.626;2023-07-09T01:37:31;99750.28;;;17.67;65.97
75681;BME280;64294;49.176;16.626;2023-07-09T01:39:56;99748.56;;;17.64;66.35
75681;BME280;64294;49.176;16.626;2023-07-09T01:42:24;99738.94;;;17.60;66.14
75681;BME280;64294;49.176;16.626;2023-07-09T01:44:52;99749.56;;;17.59;66.37
75681;BME280;64294;49.176;16.626;2023-07-09T01:47:19;99745.56;;;17.62;66.16
75681;BME280;64294;49.176;16.626;2023-07-09T01:49:44;99745.78;;;17.56;66.58
75681;BME280;64294;49.176;16.626;2023-07-09T01:52:14;99753.19;;;17.52;66.57
75681;BME280;64294;49.176;16.626;2023-07-09T01:54:41;99751.13;;;17.45;66.76
75681;BME280;64294;49.176;16.626;2023-07-09T01:59:42;99745.63;;;17.47;67.40
75681;BME280;64294;49.176;16.626;2023-07-09T02:02:09;99749.66;;;17.36;67.54
75681;BME280;64294;49.176;16.626;2023-07-09T02:04:34;99765.97;;;17.36;67.33
75681;BME280;64294;49.176;16.626;2023-07-09T02:07:00;99755.38;;;17.29;67.60
75681;BME280;64294;49.176;16.626;2023-07-09T02:09:25;99760.50;;;17.22;67.42
75681;BME280;64294;49.176;16.626;2023-07-09T02:11:51;99755.81;;;17.17;67.17
75681;BME280;64294;49.176;16.626;2023-07-09T02:14:16;99760.72;;;17.17;67.24
75681;BME280;64294;49.176;16.626;2023-07-09T02:16:41;99753.94;;;17.12;67.33
75681;BME280;64294;49.176;16.626;2023-07-09T02:19:08;99755.44;;;17.13;67.22
75681;BME280;64294;49.176;16.626;2023-07-09T02:21:34;99758.28;;;17.13;67.14
75681;BME280;64294;49.176;16.626;2023-07-09T02:24:00;99761.13;;;17.13;67.33
75681;BME280;64294;49.176;16.626;2023-07-09T02:26:25;99763.41;;;17.07;67.58
75681;BME280;64294;49.176;16.626;2023-07-09T02:28:50;99760.94;;;17.04;67.51
75681;BME280;64294;49.176;16.626;2023-07-09T02:31:16;99764.38;;;17.02;67.70
75681;BME280;64294;49.176;16.626;2023-07-09T02:33:41;99767.00;;;17.08;67.45
75681;BME280;64294;49.176;16.626;2023-07-09T02:36:07;99764.75;;;16.99;67.54
75681;BME280;64294;49.176;16.626;2023-07-09T02:38:33;99764.41;;;16.94;67.54
75681;BME280;64294;49.176;16.626;2023-07-09T02:40:59;99769.13;;;16.92;67.89
75681;BME280;64294;49.176;16.626;2023-07-09T02:43:24;99766.47;;;16.94;68.22
75681;BME280;64294;49.176;16.626;2023-07-09T02:45:49;99767.41;;;16.89;68.30
75681;BME280;64294;49.176;16.626;2023-07-09T02:48:15;99779.34;;;16.87;68.60
75681;BME280;64294;49.176;16.626;2023-07-09T02:50:40;99780.28;;;16.90;68.57
75681;BME280;64294;49.176;16.626;2023-07-09T02:53:06;99777.84;;;16.94;67.98
75681;BME280;64294;49.176;16.626;2023-07-09T02:55:31;99778.97;;;16.91;68.37
75681;BME280;64294;49.176;16.626;2023-07-09T02:57:57;99775.94;;;16.89;68.58
75681;BME280;64294;49.176;16.626;2023-07-09T03:00:22;99778.59;;;16.87;68.74
75681;BME280;64294;49.176;16.626;2023-07-09T03:02:47;99779.16;;;16.85;69.02
75681;BME280;64294;49.176;16.626;2023-07-09T03:05:13;99777.44;;;16.90;69.03
75681;BME280;64294;49.176;16.626;2023-07-09T03:07:38;99776.69;;;16.97;68.51
75681;BME280;64294;49.176;16.626;2023-07-09T03:10:04;99780.50;;;16.92;69.05
75681;BME280;64294;49.176;16.626;2023-07-09T03:12:30;99783.16;;;16.82;69.63
75681;BME280;64294;49.176;16.626;2023-07-09T03:14:55;99781.63;;;16.81;69.79
75681;BME280;64294;49.176;16.626;2023-07-09T03:17:20;99789.59;;;16.75;70.15
75681;BME280;64294;49.176;16.626;2023-07-09T03:19:46;99788.47;;;16.78;70.30
75681;BME280;64294;49.176;16.626;2023-07-09T03:22:11;99792.22;;;16.73;70.47
75681;BME280;64294;49.176;16.626;2023-07-09T03:24:37;99791.31;;;16.78;70.83
75681;BME280;64294;49.176;16.626;2023-07-09T03:27:02;99795.47;;;16.77;70.74
75681;BME280;64294;49.176;16.626;2023-07-09T03:29:28;99800.56;;;16.79;70.87
75681;BME280;64294;49.176;16.626;2023-07-09T03:31:53;99797.53;;;16.77;71.04
75681;BME280;64294;49.176;16.626;2023-07-09T03:34:18;99808.91;;;16.77;70.98
75681;BME280;64294;49.176;16.626;2023-07-09T03:36:45;99799.22;;;16.72;71.27
75681;BME280;64294;49.176;16.626;2023-07-09T03:39:10;99796.00;;;16.83;70.95
75681;BME280;64294;49.176;16.626;2023-07-09T03:41:35;99799.03;;;16.93;70.56
75681;BME280;64294;49.176;16.626;2023-07-09T03:44:01;99793.53;;;16.95;70.46
75681;BME280;64294;49.176;16.626;2023-07-09T03:46:27;99791.84;;;16.92;70.71
75681;BME280;64294;49.176;16.626;2023-07-09T03:48:52;99794.81;;;17.09;70.20
75681;BME280;64294;49.176;16.626;2023-07-09T03:51:17;99789.50;;;17.21;69.37
75681;BME280;64294;49.176;16.626;2023-07-09T03:53:43;99784.97;;;17.18;68.91
75681;BME280;64294;49.176;16.626;2023-07-09T03:56:08;99788.34;;;17.24;68.62
75681;BME280;64294;49.176;16.626;2023-07-09T03:58:35;99794.78;;;17.32;68.10
75681;BME280;64294;49.176;16.626;2023-07-09T04:01:00;99794.16;;;17.41;67.81
75681;BME280;64294;49.176;16.626;2023-07-09T04:03:25;99798.53;;;17.35;68.26
75681;BME280;64294;49.176;16.626;2023-07-09T04:05:51;99796.25;;;17.41;67.51
75681;BME280;64294;49.176;16.626;2023-07-09T04:08:17;99793.56;;;17.50;67.78
75681;BME280;64294;49.176;16.626;2023-07-09T04:10:42;99800.88;;;17.61;67.13
75681;BME280;64294;49.176;16.626;2023-07-09T04:13:08;99795.75;;;17.67;66.71
75681;BME280;64294;49.176;16.626;2023-07-09T04:15:33;99808.22;;;17.79;66.07
75681;BME280;64294;49.176;16.626;2023-07-09T04:17:59;99804.50;;;17.69;65.95
75681;BME280;64294;49.176;16.626;2023-07-09T04:20:25;99804.03;;;17.80;66.35
75681;BME280;64294;49.176;16.626;2023-07-09T04:22:50;99808.69;;;17.68;66.74
75681;BME280;64294;49.176;16.626;2023-07-09T04:25:16;99807.06;;;17.82;66.51
75681;BME280;64294;49.176;16.626;2023-07-09T04:27:42;99810.47;;;17.89;66.15
75681;BME280;64294;49.176;16.626;2023-07-09T04:30:13;99810.38;;;18.04;65.10
75681;BME280;64294;49.176;16.626;2023-07-09T04:32:40;99803.53;;;18.07;65.04
75681;BME280;64294;49.176;16.626;2023-07-09T04:35:06;99815.28;;;18.03;65.13
75681;BME280;64294;49.176;16.626;2023-07-09T04:37:32;99817.44;;;18.20;64.30
75681;BME280;64294;49.176;16.626;2023-07-09T04:39:57;99807.19;;;18.25;64.28
75681;BME280;64294;49.176;16.626;2023-07-09T04:42:23;99809.81;;;18.30;64.39
75681;BME280;64294;49.176;16.626;2023-07-09T04:44:48;99810.88;;;18.42;64.19
75681;BME280;64294;49.176;16.626;2023-07-09T04:47:14;99809.34;;;18.41;64.18
75681;BME280;64294;49.176;16.626;2023-07-09T04:49:40;99812.47;;;18.53;63.18
75681;BME280;64294;49.176;16.626;2023-07-09T04:52:06;99816.41;;;18.58;62.77
75681;BME280;64294;49.176;16.626;2023-07-09T04:54:32;99815.16;;;18.76;62.64
75681;BME280;64294;49.176;16.626;2023-07-09T04:56:58;99820.03;;;18.83;62.14
75681;BME280;64294;49.176;16.626;2023-07-09T04:59:24;99816.84;;;18.96;62.03
75681;BME280;64294;49.176;16.626;2023-07-09T05:01:49;99817.97;;;19.01;61.14
75681;BME280;64294;49.176;16.626;2023-07-09T05:04:15;99824.91;;;19.08;59.73
75681;BME280;64294;49.176;16.626;2023-07-09T05:06:40;99821.22;;;19.15;60.14
75681;BME280;64294;49.176;16.626;2023-07-09T05:09:05;99827.44;;;19.38;59.23
75681;BME280;64294;49.176;16.626;2023-07-09T05:11:33;99830.31;;;19.21;59.62
75681;BME280;64294;49.176;16.626;2023-07-09T05:13:59;99828.78;;;19.37;59.39
75681;BME280;64294;49.176;16.626;2023-07-09T05:16:24;99816.97;;;19.58;58.48
75681;BME280;64294;49.176;16.626;2023-07-09T05:18:50;99819.50;;;19.71;57.98
75681;BME280;64294;49.176;16.626;2023-07-09T05:21:15;99831.81;;;19.74;56.83
75681;BME280;64294;49.176;16.626;2023-07-09T05:23:41;99827.03;;;20.03;56.32
75681;BME280;64294;49.176;16.626;2023-07-09T05:26:06;99826.44;;;20.05;56.45
75681;BME280;64294;49.176;16.626;2023-07-09T05:28:31;99826.81;;;20.18;56.22
75681;BME280;64294;49.176;16.626;2023-07-09T05:30:58;99833.69;;;20.42;56.12
75681;BME280;64294;49.176;16.626;2023-07-09T05:33:23;99838.72;;;20.61;55.69
75681;BME280;64294;49.176;16.626;2023-07-09T05:35:49;99829.34;;;20.88;54.27
75681;BME280;64294;49.176;16.626;2023-07-09T05:38:14;99832.97;;;20.88;53.97
75681;BME280;64294;49.176;16.626;2023-07-09T05:40:41;99827.72;;;21.13;53.04
75681;BME280;64294;49.176;16.626;2023-07-09T05:43:07;99831.25;;;21.31;52.87
75681;BME280;64294;49.176;16.626;2023-07-09T05:45:33;99837.41;;;21.57;52.04
75681;BME280;64294;49.176;16.626;2023-07-09T05:47:59;99843.72;;;21.84;51.11
75681;BME280;64294;49.176;16.626;2023-07-09T05:50:25;99836.16;;;21.98;50.64
75681;BME280;64294;49.176;16.626;2023-07-09T05:52:51;99840.22;;;22.15;49.57
75681;BME280;64294;49.176;16.626;2023-07-09T05:55:17;99836.09;;;22.27;48.65
75681;BME280;64294;49.176;16.626;2023-07-09T05:57:42;99830.41;;;22.58;47.96
75681;BME280;64294;49.176;16.626;2023-07-09T06:00:08;99833.81;;;22.66;48.57
75681;BME280;64294;49.176;16.626;2023-07-09T06:02:34;99833.09;;;22.97;47.55
75681;BME280;64294;49.176;16.626;2023-07-09T06:05:00;99830.47;;;23.01;47.35
75681;BME280;64294;49.176;16.626;2023-07-09T06:07:25;99824.59;;;23.42;46.14
75681;BME280;64294;49.176;16.626;2023-07-09T06:09:50;99830.56;;;23.89;45.15
75681;BME280;64294;49.176;16.626;2023-07-09T06:12:17;99835.66;;;24.70;43.71
75681;BME280;64294;49.176;16.626;2023-07-09T06:14:45;99831.22;;;26.54;40.06
75681;BME280;64294;49.176;16.626;2023-07-09T06:17:10;99835.03;;;28.30;35.94
75681;BME280;64294;49.176;16.626;2023-07-09T06:19:36;99838.97;;;29.51;33.70
75681;BME280;64294;49.176;16.626;2023-07-09T06:22:02;99827.72;;;30.50;31.77
75681;BME280;64294;49.176;16.626;2023-07-09T06:24:27;99827.31;;;30.78;30.91
75681;BME280;64294;49.176;16.626;2023-07-09T06:26:52;99827.66;;;30.68;29.82
75681;BME280;64294;49.176;16.626;2023-07-09T06:29:18;99822.84;;;31.58;29.80
75681;BME280;64294;49.176;16.626;2023-07-09T06:31:43;99824.56;;;31.87;28.58
75681;BME280;64294;49.176;16.626;2023-07-09T06:34:09;99826.22;;;32.40;27.82
75681;BME280;64294;49.176;16.626;2023-07-09T06:36:35;99835.00;;;32.68;27.97
75681;BME280;64294;49.176;16.626;2023-07-09T06:39:01;99830.09;;;31.79;28.26
75681;BME280;64294;49.176;16.626;2023-07-09T06:41:26;99837.16;;;31.30;30.88
75681;BME280;64294;49.176;16.626;2023-07-09T06:43:51;99838.84;;;30.38;31.21
75681;BME280;64294;49.176;16.626;2023-07-09T06:46:18;99840.91;;;29.29;32.78
75681;BME280;64294;49.176;16.626;2023-07-09T06:48:44;99837.84;;;28.59;33.85
75681;BME280;64294;49.176;16.626;2023-07-09T06:51:09;99837.22;;;28.45;34.19
75681;BME280;64294;49.176;16.626;2023-07-09T06:53:35;99829.00;;;27.94;35.39
75681;BME280;64294;49.176;16.626;2023-07-09T06:56:02;99832.22;;;27.87;34.42
75681;BME280;64294;49.176;16.626;2023-07-09T06:58:29;99830.69;;;27.99;34.06
75681;BME280;64294;49.176;16.626;2023-07-09T07:00:57;99827.50;;;27.93;34.36
75681;BME280;64294;49.176;16.626;2023-07-09T07:03:23;99823.00;;;27.61;34.40
75681;BME280;64294;49.176;16.626;2023-07-09T07:05:50;99825.13;;;27.74;34.06
75681;BME280;64294;49.176;16.626;2023-07-09T07:08:18;99826.13;;;27.65;33.80
75681;BME280;64294;49.176;16.626;2023-07-09T07:10:44;99824.03;;;27.81;34.35
75681;BME280;64294;49.176;16.626;2023-07-09T07:13:12;99823.50;;;28.00;34.48
75681;BME280;64294;49.176;16.626;2023-07-09T07:15:38;99827.75;;;28.76;33.98
75681;BME280;64294;49.176;16.626;2023-07-09T07:18:04;99824.03;;;28.42;34.50
75681;BME280;64294;49.176;16.626;2023-07-09T07:20:30;99822.44;;;28.39;34.69
75681;BME280;64294;49.176;16.626;2023-07-09T07:22:56;99820.59;;;28.30;34.74
75681;BME280;64294;49.176;16.626;2023-07-09T07:25:23;99813.00;;;28.23;34.19
75681;BME280;64294;49.176;16.626;2023-07-09T07:27:49;99817.66;;;28.77;34.01
75681;BME280;64294;49.176;16.626;2023-07-09T07:30:14;99822.63;;;28.90;33.89
75681;BME280;64294;49.176;16.626;2023-07-09T07:32:50;99820.13;;;28.67;33.17
75681;BME280;64294;49.176;16.626;2023-07-09T07:35:15;99810.78;;;28.69;34.39
75681;BME280;64294;49.176;16.626;2023-07-09T07:37:42;99817.97;;;28.68;33.03
75681;BME280;64294;49.176;16.626;2023-07-09T07:40:09;99816.84;;;28.75;34.40
75681;BME280;64294;49.176;16.626;2023-07-09T07:42:34;99810.66;;;28.98;32.56
75681;BME280;64294;49.176;16.626;2023-07-09T07:45:00;99809.25;;;28.99;33.25
75681;BME280;64294;49.176;16.626;2023-07-09T07:47:26;99812.16;;;28.83;32.48
75681;BME280;64294;49.176;16.626;2023-07-09T07:49:55;99803.47;;;28.99;33.59
75681;BME280;64294;49.176;16.626;2023-07-09T07:52:21;99802.03;;;29.34;32.78
75681;BME280;64294;49.176;16.626;2023-07-09T07:54:46;99801.19;;;29.65;32.16
75681;BME280;64294;49.176;16.626;2023-07-09T07:57:12;99799.69;;;29.64;32.31
75681;BME280;64294;49.176;16.626;2023-07-09T07:59:38;99788.81;;;30.00;32.30
75681;BME280;64294;49.176;16.626;2023-07-09T08:02:05;99792.06;;;30.28;31.16
75681;BME280;64294;49.176;16.626;2023-07-09T08:04:31;99791.19;;;30.43;31.15
75681;BME280;64294;49.176;16.626;2023-07-09T08:06:56;99778.94;;;30.64;29.81
75681;BME280;64294;49.176;16.626;2023-07-09T08:09:22;99793.66;;;30.51;31.10
75681;BME280;64294;49.176;16.626;2023-07-09T08:11:47;99793.00;;;30.52;32.08
75681;BME280;64294;49.176;16.626;2023-07-09T08:14:14;99783.88;;;31.01;31.96
75681;BME280;64294;49.176;16.626;2023-07-09T08:16:39;99785.59;;;31.09;31.17
75681;BME280;64294;49.176;16.626;2023-07-09T08:19:05;99775.09;;;31.63;31.28
75681;BME280;64294;49.176;16.626;2023-07-09T08:21:31;99788.13;;;32.08;29.98
75681;BME280;64294;49.176;16.626;2023-07-09T08:23:56;99790.53;;;31.91;29.06
75681;BME280;64294;49.176;16.626;2023-07-09T08:26:22;99783.22;;;32.14;28.09
75681;BME280;64294;49.176;16.626;2023-07-09T08:28:49;99793.25;;;32.09;28.05
75681;BME280;64294;49.176;16.626;2023-07-09T08:31:14;99788.38;;;31.92;29.25
75681;BME280;64294;49.176;16.626;2023-07-09T08:33:40;99780.16;;;32.32;29.40
75681;BME280;64294;49.176;16.626;2023-07-09T08:36:06;99779.94;;;32.26;29.46
75681;BME280;64294;49.176;16.626;2023-07-09T08:38:31;99776.50;;;32.32;27.77
75681;BME280;64294;49.176;16.626;2023-07-09T08:49:02;99766.16;;;33.04;28.08
75681;BME280;64294;49.176;16.626;2023-07-09T08:51:37;99771.19;;;33.02;27.85
75681;BME280;64294;49.176;16.626;2023-07-09T08:54:09;99767.63;;;32.77;29.19
75681;BME280;64294;49.176;16.626;2023-07-09T08:56:38;99766.47;;;32.89;28.24
75681;BME280;64294;49.176;16.626;2023-07-09T08:59:03;99772.47;;;33.23;27.59
75681;BME280;64294;49.176;16.626;2023-07-09T09:01:35;99762.72;;;33.40;27.28
75681;BME280;64294;49.176;16.626;2023-07-09T09:04:13;99765.91;;;33.50;27.78
75681;BME280;64294;49.176;16.626;2023-07-09T09:06:43;99749.69;;;33.43;26.53
75681;BME280;64294;49.176;16.626;2023-07-09T09:09:21;99769.56;;;33.51;26.59
75681;BME280;64294;49.176;16.626;2023-07-09T09:14:41;99765.03;;;34.06;25.79
75681;BME280;64294;49.176;16.626;2023-07-09T09:17:13;99763.38;;;33.98;25.39
75681;BME280;64294;49.176;16.626;2023-07-09T09:19:48;99754.16;;;33.78;24.95
75681;BME280;64294;49.176;16.626;2023-07-09T09:22:22;99757.56;;;33.98;25.20
75681;BME280;64294;49.176;16.626;2023-07-09T09:27:22;99753.53;;;34.14;24.45
75681;BME280;64294;49.176;16.626;2023-07-09T09:29:47;99751.56;;;34.24;24.98
75681;BME280;64294;49.176;16.626;2023-07-09T09:32:29;99738.34;;;34.55;23.69
75681;BME280;64294;49.176;16.626;2023-07-09T09:34:56;99736.72;;;34.46;23.88
75681;BME280;64294;49.176;16.626;2023-07-09T09:37:31;99739.72;;;34.16;23.47
75681;BME280;64294;49.176;16.626;2023-07-09T09:39:59;99754.47;;;33.90;24.47
75681;BME280;64294;49.176;16.626;2023-07-09T09:42:25;99741.50;;;33.97;23.81
75681;BME280;64294;49.176;16.626;2023-07-09T09:44:53;99740.94;;;34.05;23.75
75681;BME280;64294;49.176;16.626;2023-07-09T09:47:19;99739.28;;;33.96;23.32
75681;BME280;64294;49.176;16.626;2023-07-09T09:49:45;99743.66;;;34.31;24.00
75681;BME280;64294;49.176;16.626;2023-07-09T09:52:13;99735.97;;;34.84;23.88
75681;BME280;64294;49.176;16.626;2023-07-09T09:54:41;99733.28;;;34.58;23.34
75681;BME280;64294;49.176;16.626;2023-07-09T09:57:24;99738.66;;;34.72;23.25
75681;BME280;64294;49.176;16.626;2023-07-09T09:59:50;99734.97;;;35.09;22.38
75681;BME280;64294;49.176;16.626;2023-07-09T10:02:18;99732.66;;;35.44;24.09
75681;BME280;64294;49.176;16.626;2023-07-09T10:04:44;99731.84;;;35.39;22.04
75681;BME280;64294;49.176;16.626;2023-07-09T10:07:22;99737.94;;;35.54;22.42
75681;BME280;64294;49.176;16.626;2023-07-09T10:09:53;99726.88;;;35.50;22.10
75681;BME280;64294;49.176;16.626;2023-07-09T10:18:00;99736.31;;;36.47;21.88
75681;BME280;64294;49.176;16.626;2023-07-09T10:20:34;99724.34;;;36.29;21.51
75681;BME280;64294;49.176;16.626;2023-07-09T10:39:24;99710.09;;;36.01;20.64
75681;BME280;64294;49.176;16.626;2023-07-09T10:41:54;99700.97;;;35.76;21.49
75681;BME280;64294;49.176;16.626;2023-07-09T10:44:28;99699.09;;;35.99;20.74
75681;BME280;64294;49.176;16.626;2023-07-09T10:47:01;99701.19;;;35.91;20.54
75681;BME280;64294;49.176;16.626;2023-07-09T10:49:35;99692.28;;;36.37;20.62
75681;BME280;64294;49.176;16.626;2023-07-09T10:52:07;99700.59;;;37.42;19.96
75681;BME280;64294;49.176;16.626;2023-07-09T10:55:05;99697.50;;;37.21;18.54
75681;BME280;64294;49.176;16.626;2023-07-09T10:57:43;99693.28;;;37.43;19.38
75681;BME280;64294;49.176;16.626;2023-07-09T11:00:18;99687.69;;;36.86;18.93
75681;BME280;64294;49.176;16.626;2023-07-09T11:02:44;99690.75;;;37.05;19.27
75681;BME280;64294;49.176;16.626;2023-07-09T11:05:11;99683.47;;;37.08;19.26
75681;BME280;64294;49.176;16.626;2023-07-09T11:07:48;99687.72;;;36.90;19.53
75681;BME280;64294;49.176;16.626;2023-07-09T11:10:35;99672.00;;;36.57;20.19
75681;BME280;64294;49.176;16.626;2023-07-09T11:13:10;99681.81;;;36.20;20.84
75681;BME280;64294;49.176;16.626;2023-07-09T11:15:40;99673.13;;;36.98;19.69
75681;BME280;64294;49.176;16.626;2023-07-09T11:18:10;99669.41;;;36.25;20.09
75681;BME280;64294;49.176;16.626;2023-07-09T11:20:43;99674.16;;;35.92;20.28
75681;BME280;64294;49.176;16.626;2023-07-09T11:23:23;99665.13;;;35.26;20.30
75681;BME280;64294;49.176;16.626;2023-07-09T11:26:03;99686.19;;;34.76;19.84
75681;BME280;64294;49.176;16.626;2023-07-09T11:28:37;99675.28;;;35.20;20.15
75681;BME280;64294;49.176;16.626;2023-07-09T11:31:39;99665.63;;;35.56;20.11
75681;BME280;64294;49.176;16.626;2023-07-09T11:37:11;99661.50;;;36.34;19.19
75681;BME280;64294;49.176;16.626;2023-07-09T11:42:03;99661.56;;;36.40;19.54
75681;BME280;64294;49.176;16.626;2023-07-09T11:44:33;99661.16;;;36.70;18.03
75681;BME280;64294;49.176;16.626;2023-07-09T11:47:17;99664.09;;;36.74;18.45
75681;BME280;64294;49.176;16.626;2023-07-09T11:49:54;99661.34;;;36.88;18.46
75681;BME280;64294;49.176;16.626;2023-07-09T11:52:31;99657.22;;;37.24;18.58
75681;BME280;64294;49.176;16.626;2023-07-09T11:55:46;99648.66;;;37.56;17.98
75681;BME280;64294;49.176;16.626;2023-07-09T11:57:59;99651.78;;;37.95;18.07
75681;BME280;64294;49.176;16.626;2023-07-09T12:00:26;99644.41;;;37.82;17.39
75681;BME280;64294;49.176;16.626;2023-07-09T12:02:54;99637.63;;;37.55;17.96
75681;BME280;64294;49.176;16.626;2023-07-09T12:05:22;99637.69;;;37.67;17.01
75681;BME280;64294;49.176;16.626;2023-07-09T12:07:51;99626.91;;;38.12;16.52
75681;BME280;64294;49.176;16.626;2023-07-09T12:10:26;99631.41;;;38.54;16.73
75681;BME280;64294;49.176;16.626;2023-07-09T12:12:56;99621.06;;;39.65;15.67
75681;BME280;64294;49.176;16.626;2023-07-09T12:15:27;99624.78;;;39.41;15.82
75681;BME280;64294;49.176;16.626;2023-07-09T12:18:01;99618.88;;;39.49;16.06
75681;BME280;64294;49.176;16.626;2023-07-09T12:20:34;99616.47;;;40.09;15.40
75681;BME280;64294;49.176;16.626;2023-07-09T12:23:00;99619.59;;;39.64;16.45
75681;BME280;64294;49.176;16.626;2023-07-09T12:25:34;99616.56;;;39.86;15.93
75681;BME280;64294;49.176;16.626;2023-07-09T12:28:00;99614.41;;;40.97;14.49
75681;BME280;64294;49.176;16.626;2023-07-09T12:30:28;99611.16;;;41.28;13.73
75681;BME280;64294;49.176;16.626;2023-07-09T12:32:57;99610.13;;;40.78;14.52
75681;BME280;64294;49.176;16.626;2023-07-09T12:35:22;99610.94;;;40.68;14.39
75681;BME280;64294;49.176;16.626;2023-07-09T12:37:48;99610.44;;;40.39;14.26
75681;BME280;64294;49.176;16.626;2023-07-09T12:40:23;99601.97;;;39.42;14.61
75681;BME280;64294;49.176;16.626;2023-07-09T12:42:52;99600.28;;;40.08;13.95
75681;BME280;64294;49.176;16.626;2023-07-09T12:45:20;99591.72;;;39.32;13.99
75681;BME280;64294;49.176;16.626;2023-07-09T12:47:48;99587.34;;;38.46;15.99
75681;BME280;64294;49.176;16.626;2023-07-09T12:50:32;99588.88;;;38.71;15.94
75681;BME280;64294;49.176;16.626;2023-07-09T12:53:01;99585.88;;;38.49;15.64
75681;BME280;64294;49.176;16.626;2023-07-09T12:55:40;99593.69;;;37.63;15.73
75681;BME280;64294;49.176;16.626;2023-07-09T12:58:13;99588.25;;;37.09;16.33
75681;BME280;64294;49.176;16.626;2023-07-09T13:00:47;99583.84;;;37.08;17.50
75681;BME280;64294;49.176;16.626;2023-07-09T13:03:18;99576.84;;;37.64;17.30
75681;BME280;64294;49.176;16.626;2023-07-09T13:08:32;99567.44;;;37.94;17.12
75681;BME280;64294;49.176;16.626;2023-07-09T13:11:00;99567.41;;;37.79;16.93
75681;BME280;64294;49.176;16.626;2023-07-09T13:13:25;99562.25;;;37.78;16.68
75681;BME280;64294;49.176;16.626;2023-07-09T13:15:55;99568.03;;;37.57;17.55
75681;BME280;64294;49.176;16.626;2023-07-09T13:18:27;99558.47;;;37.53;17.06
75681;BME280;64294;49.176;16.626;2023-07-09T13:20:54;99556.41;;;37.82;16.26
75681;BME280;64294;49.176;16.626;2023-07-09T13:23:23;99562.25;;;37.78;16.41
75681;BME280;64294;49.176;16.626;2023-07-09T13:25:49;99561.63;;;36.78;15.70
75681;BME280;64294;49.176;16.626;2023-07-09T13:28:26;99560.59;;;36.39;17.60
75681;BME280;64294;49.176;16.626;2023-07-09T13:30:55;99557.47;;;37.08;17.57
75681;BME280;64294;49.176;16.626;2023-07-09T13:33:21;99551.03;;;37.27;17.54
75681;BME280;64294;49.176;16.626;2023-07-09T13:35:47;99562.59;;;37.05;17.18
75681;BME280;64294;49.176;16.626;2023-07-09T13:38:18;99549.31;;;36.90;17.04
75681;BME280;64294;49.176;16.626;2023-07-09T13:40:46;99563.16;;;36.81;16.95
75681;BME280;64294;49.176;16.626;2023-07-09T13:43:18;99565.66;;;36.34;17.31
75681;BME280;64294;49.176;16.626;2023-07-09T13:45:45;99556.53;;;36.02;17.62